Time;durP1;ratioP1;P1;durP2;ratioP2;P2;SDS_P1;SDS_P2;PMS_P1;PMS_P2;Temp;Humidity;BMP_temperature;BMP_pressure;BME280_temperature;BME280_humidity;BME280_pressure;Samples;Min_cycle;Max_cycle;Signal;HPM_P1;HPM_P2
2024/02/04 00:01:19;;;;;;;9.20;2.05;;;;;;;5.31;100.00;101706.69;4917498;29;19929;-72
2024/02/04 00:03:44;;;;;;;9.85;2.05;;;;;;;5.35;100.00;101698.09;4932657;28;20040;-72
2024/02/04 00:06:10;;;;;;;12.45;1.80;;;;;;;5.37;100.00;101705.84;4941695;28;20576;-72
2024/02/04 00:08:37;;;;;;;8.13;1.65;;;;;;;5.35;100.00;101695.44;4931799;28;20136;-72
2024/02/04 00:11:04;;;;;;;15.05;2.30;;;;;;;5.32;100.00;101679.91;4921826;29;20820;-71
2024/02/04 00:13:30;;;;;;;11.10;2.25;;;;;;;5.30;100.00;101683.81;4933425;28;20413;-72
2024/02/04 00:15:58;;;;;;;9.02;1.42;;;;;;;5.27;100.00;101685.03;4932995;28;20039;-72
2024/02/04 00:18:25;;;;;;;7.78;1.70;;;;;;;5.28;100.00;101689.31;4924357;28;20039;-73
2024/02/04 00:20:50;;;;;;;9.73;1.63;;;;;;;5.28;100.00;101691.16;4940550;28;20414;-73
2024/02/04 00:23:16;;;;;;;13.73;2.30;;;;;;;5.24;100.00;101700.59;4931834;28;20494;-73
2024/02/04 00:25:42;;;;;;;10.05;1.92;;;;;;;5.20;100.00;101694.88;4934063;28;20098;-72
2024/02/04 00:28:11;;;;;;;10.57;2.10;;;;;;;5.18;100.00;101696.94;4937507;28;20087;-73
2024/02/04 00:30:38;;;;;;;11.82;2.17;;;;;;;5.15;100.00;101711.44;4892793;28;20190;-73
2024/02/04 00:33:04;;;;;;;11.30;2.00;;;;;;;5.09;100.00;101725.56;4930830;28;20123;-74
2024/02/04 00:35:29;;;;;;;10.20;2.05;;;;;;;5.05;100.00;101729.66;4918884;28;20039;-74
2024/02/04 00:37:56;;;;;;;17.63;3.08;;;;;;;5.01;100.00;101717.81;4925773;29;20038;-73
2024/02/04 00:40:23;;;;;;;8.90;1.60;;;;;;;4.99;100.00;101719.03;4914032;29;20117;-73
2024/02/04 00:42:49;;;;;;;8.07;1.58;;;;;;;4.99;100.00;101698.63;4893490;28;20568;-73
2024/02/04 00:45:14;;;;;;;11.50;2.25;;;;;;;4.99;100.00;101697.81;4901998;29;20055;-73
2024/02/04 00:47:40;;;;;;;13.15;2.22;;;;;;;5.00;100.00;101689.63;4934416;28;20094;-72
2024/02/04 00:50:06;;;;;;;8.93;1.75;;;;;;;5.01;100.00;101691.25;4938445;28;20031;-72
2024/02/04 00:52:32;;;;;;;;;;;;;;;5.02;100.00;101687.59;4930992;28;20094;-73
2024/02/04 00:55:01;;;;;;;10.48;1.75;;;;;;;5.00;100.00;101668.38;4923814;29;19945;-74
2024/02/04 00:57:26;;;;;;;8.55;1.70;;;;;;;5.02;100.00;101665.56;4940021;28;20509;-73
2024/02/04 00:59:53;;;;;;;8.20;2.40;;;;;;;5.01;100.00;101667.38;4938456;28;20040;-74
2024/02/04 01:02:19;;;;;;;6.03;1.50;;;;;;;4.99;100.00;101661.47;4936865;28;20039;-74
2024/02/04 01:04:44;;;;;;;9.68;1.63;;;;;;;5.00;100.00;101662.28;4907605;28;20041;-73
2024/02/04 01:07:10;;;;;;;13.98;2.08;;;;;;;4.99;100.00;101665.94;4906772;29;20031;-74
2024/02/04 01:09:36;;;;;;;10.80;1.80;;;;;;;4.97;100.00;101660.03;4940427;28;20167;-74
2024/02/04 01:12:03;;;;;;;8.52;1.73;;;;;;;4.96;100.00;101650.47;4934817;28;20035;-72
2024/02/04 01:14:29;;;;;;;11.07;2.20;;;;;;;4.92;100.00;101650.84;4938399;28;20047;-74
2024/02/04 01:16:55;;;;;;;14.50;2.58;;;;;;;4.98;100.00;101637.78;4936258;28;20023;-73
2024/02/04 01:19:21;;;;;;;9.27;2.22;;;;;;;5.00;100.00;101643.69;4938650;28;20039;-73
2024/02/04 01:21:46;;;;;;;5.78;1.80;;;;;;;5.05;100.00;101659.81;4929518;28;20528;-73
2024/02/04 01:24:12;;;;;;;11.98;2.13;;;;;;;5.06;100.00;101656.94;4912623;29;20091;-73
2024/02/04 01:26:38;;;;;;;12.00;2.55;;;;;;;5.15;100.00;101661.00;4932336;28;20070;-73
2024/02/04 01:29:04;;;;;;;11.02;1.73;;;;;;;5.18;100.00;101649.94;4916126;29;20146;-75
2024/02/04 01:31:30;;;;;;;7.72;1.60;;;;;;;5.22;100.00;101655.66;4925456;28;20044;-74
2024/02/04 01:33:57;;;;;;;15.90;2.88;;;;;;;5.25;100.00;101652.56;4930999;28;20039;-74
2024/02/04 01:36:23;;;;;;;8.77;1.80;;;;;;;5.26;100.00;101640.09;4917134;29;20047;-73
2024/02/04 01:38:49;;;;;;;9.23;1.88;;;;;;;5.31;100.00;101650.91;4898964;28;20040;-73
2024/02/04 01:41:15;;;;;;;8.88;1.50;;;;;;;5.32;100.00;101648.03;4928033;29;20039;-73
2024/02/04 01:43:41;;;;;;;8.77;1.70;;;;;;;5.37;100.00;101652.72;4933865;28;20143;-73
2024/02/04 01:46:08;;;;;;;12.75;1.95;;;;;;;5.39;100.00;101650.66;4918280;29;20505;-72
2024/02/04 01:48:34;;;;;;;10.27;2.08;;;;;;;5.41;100.00;101635.31;4939634;28;20070;-73
2024/02/04 01:51:01;;;;;;;9.50;1.65;;;;;;;5.46;100.00;101640.81;4939806;28;20036;-72
2024/02/04 01:53:28;;;;;;;10.88;1.33;;;;;;;5.50;100.00;101641.22;4918248;29;20043;-73
2024/02/04 01:55:55;;;;;;;10.27;1.83;;;;;;;5.53;100.00;101648.75;4932942;28;20925;-73
2024/02/04 01:58:22;;;;;;;9.13;1.50;;;;;;;5.56;100.00;101657.09;4940979;28;20201;-73
2024/02/04 02:00:49;;;;;;;9.30;2.30;;;;;;;5.57;100.00;101650.75;4916221;28;20047;-72
2024/02/04 02:03:16;;;;;;;11.30;1.90;;;;;;;5.57;100.00;101637.47;4936183;28;20035;-75
2024/02/04 02:05:42;;;;;;;;;;;;;;;5.58;100.00;101644.41;4936885;28;20046;-73
2024/02/04 02:08:08;;;;;;;19.50;1.90;;;;;;;5.60;100.00;101639.69;4927978;28;19919;-74
2024/02/04 02:10:34;;;;;;;9.10;1.33;;;;;;;5.61;100.00;101641.31;4924963;28;20122;-72
2024/02/04 02:13:07;;;;;;;12.25;1.23;;;;;;;5.61;100.00;101628.03;4939278;28;20050;-73
2024/02/04 02:15:39;;;;;;;8.07;1.52;;;;;;;5.66;100.00;101641.50;4918958;28;20058;-73
2024/02/04 02:18:19;;;;;;;11.57;1.67;;;;;;;5.69;100.00;101643.75;4914490;29;20154;-73
2024/02/04 02:21:17;;;;;;;7.65;1.50;;;;;;;5.71;100.00;101644.34;4912232;28;20043;-72
2024/02/04 02:24:14;;;;;;;9.45;1.85;;;;;;;5.72;100.00;101640.63;4919978;28;20055;-72
2024/02/04 02:26:41;;;;;;;9.13;1.92;;;;;;;5.73;100.00;101630.81;4933778;28;20510;-72
2024/02/04 02:29:08;;;;;;;8.35;1.50;;;;;;;5.73;100.00;101626.31;4946513;28;20108;-72
2024/02/04 02:31:36;;;;;;;10.80;2.63;;;;;;;5.81;100.00;101611.94;4945749;28;20058;-73
2024/02/04 02:34:02;;;;;;;7.93;2.05;;;;;;;5.87;100.00;101616.41;4928887;28;20038;-72
2024/02/04 02:36:33;;;;;;;11.05;1.33;;;;;;;5.89;100.00;101618.84;4915251;29;20039;-72
2024/02/04 02:39:13;;;;;;;10.88;1.85;;;;;;;5.90;100.00;101610.66;4939375;28;20118;-72
2024/02/04 02:41:42;;;;;;;10.68;1.73;;;;;;;5.91;100.00;101608.84;4916548;28;20095;-73
2024/02/04 02:44:09;;;;;;;7.97;2.05;;;;;;;5.89;100.00;101608.19;4933627;28;20040;-74
2024/02/04 02:46:36;;;;;;;6.72;1.35;;;;;;;5.79;100.00;101606.03;4932902;28;20043;-74
2024/02/04 02:49:02;;;;;;;10.43;1.42;;;;;;;5.68;100.00;101596.91;4925024;29;20043;-73
2024/02/04 02:51:28;;;;;;;9.02;1.92;;;;;;;5.70;100.00;101596.72;4933180;28;20047;-73
2024/02/04 02:53:53;;;;;;;7.88;2.58;;;;;;;5.66;100.00;101593.66;4938081;28;20043;-71
2024/02/04 02:56:19;;;;;;;9.65;1.88;;;;;;;5.60;100.00;101609.66;4936079;28;20034;-73
2024/02/04 02:58:45;;;;;;;9.85;1.80;;;;;;;5.54;100.00;101597.22;4921783;28;20049;-72
2024/02/04 03:01:11;;;;;;;9.00;2.15;;;;;;;5.50;100.00;101601.34;4940954;28;20031;-72
2024/02/04 03:03:37;;;;;;;8.43;1.50;;;;;;;5.47;100.00;101600.72;4920207;28;20121;-72
2024/02/04 03:06:03;;;;;;;14.93;1.67;;;;;;;5.43;100.00;101594.25;4934047;28;20780;-71
2024/02/04 03:08:29;;;;;;;8.27;1.55;;;;;;;5.44;100.00;101595.06;4940857;28;20046;-73
2024/02/04 03:10:55;;;;;;;8.50;2.03;;;;;;;5.37;100.00;101589.78;4930519;28;20035;-73
2024/02/04 03:13:20;;;;;;;9.30;1.67;;;;;;;5.36;100.00;101587.34;4903618;29;20043;-73
2024/02/04 03:15:47;;;;;;;15.23;2.45;;;;;;;5.39;100.00;101581.59;4917767;28;20047;-73
2024/02/04 03:18:12;;;;;;;9.85;1.80;;;;;;;5.40;100.00;101572.59;4937956;28;20043;-73
2024/02/04 03:20:38;;;;;;;9.82;1.92;;;;;;;5.37;100.00;101576.50;4910298;28;20043;-72
2024/02/04 03:23:05;;;;;;;10.48;1.55;;;;;;;5.35;100.00;101575.91;4907984;29;20095;-73
2024/02/04 03:25:31;;;;;;;7.25;1.50;;;;;;;5.36;100.00;101571.41;4899704;29;20043;-72
2024/02/04 03:27:57;;;;;;;8.80;2.08;;;;;;;5.35;100.00;101580.38;4915606;28;21125;-72
2024/02/04 03:30:22;;;;;;;7.53;1.80;;;;;;;5.33;100.00;101571.81;4939504;28;20568;-74
2024/02/04 03:32:50;;;;;;;9.82;1.70;;;;;;;5.31;100.00;101569.38;4919848;28;20118;-74
2024/02/04 03:35:16;;;;;;;7.47;1.73;;;;;;;5.27;100.00;101562.88;4931673;28;20078;-73
2024/02/04 03:37:42;;;;;;;5.35;1.48;;;;;;;5.24;100.00;101578.44;4911961;28;20094;-74
2024/02/04 03:40:09;;;;;;;13.93;2.33;;;;;;;5.24;100.00;101568.63;4926072;29;20052;-72
2024/02/04 03:42:34;;;;;;;;;;;;;;;5.23;100.00;101566.19;4940137;28;20053;-72
2024/02/04 03:45:03;;;;;;;13.45;1.75;;;;;;;5.23;100.00;101563.53;4920616;28;19925;-73
2024/02/04 03:47:29;;;;;;;9.60;1.95;;;;;;;5.24;100.00;101570.47;4926161;28;20032;-75
2024/02/04 03:49:54;;;;;;;6.53;1.73;;;;;;;5.18;100.00;101561.50;4926851;28;20050;-74
2024/02/04 03:52:20;;;;;;;8.57;1.40;;;;;;;5.14;100.00;101563.75;4923831;29;20035;-73
2024/02/04 03:54:46;;;;;;;9.18;1.63;;;;;;;5.12;100.00;101549.88;4918419;28;20074;-73
2024/02/04 03:57:11;;;;;;;9.98;1.63;;;;;;;5.11;100.00;101558.06;4931992;28;20039;-74
2024/02/04 03:59:37;;;;;;;7.07;1.75;;;;;;;5.14;100.00;101542.50;4893580;29;20035;-74
2024/02/04 04:02:03;;;;;;;7.70;2.03;;;;;;;5.13;100.00;101546.19;4931151;28;20039;-74
2024/02/04 04:04:28;;;;;;;6.07;1.30;;;;;;;5.12;100.00;101544.56;4936295;28;20133;-74
2024/02/04 04:06:54;;;;;;;5.07;1.73;;;;;;;5.11;100.00;101540.28;4931166;28;20417;-74
2024/02/04 04:09:20;;;;;;;9.52;1.95;;;;;;;5.12;100.00;101538.44;4935591;28;20059;-73
2024/02/04 04:11:45;;;;;;;5.57;1.45;;;;;;;5.14;100.00;101545.16;4933107;28;20039;-73
2024/02/04 04:14:11;;;;;;;9.43;1.58;;;;;;;5.09;100.00;101542.34;4927065;28;20074;-73
2024/02/04 04:16:37;;;;;;;9.43;1.20;;;;;;;5.08;100.00;101548.69;4933960;28;20035;-73
2024/02/04 04:19:03;;;;;;;8.63;1.70;;;;;;;5.06;100.00;101537.47;4946063;28;20489;-73
2024/02/04 04:21:28;;;;;;;9.13;1.95;;;;;;;5.11;100.00;101537.63;4915856;29;20043;-73
2024/02/04 04:23:54;;;;;;;5.55;2.05;;;;;;;5.14;100.00;101534.53;4913860;28;20126;-75
2024/02/04 04:26:19;;;;;;;9.90;2.05;;;;;;;5.12;100.00;101539.25;4939763;28;20032;-74
2024/02/04 04:28:46;;;;;;;7.72;1.63;;;;;;;5.09;100.00;101534.41;4936668;28;20089;-74
2024/02/04 04:31:13;;;;;;;7.95;2.05;;;;;;;5.06;100.00;101534.81;4934875;28;20528;-74
2024/02/04 04:33:39;;;;;;;8.60;1.75;;;;;;;5.04;100.00;101536.06;4934408;28;20047;-75
2024/02/04 04:36:06;;;;;;;6.35;1.65;;;;;;;5.05;100.00;101554.41;4938493;28;20035;-73
2024/02/04 04:38:32;;;;;;;6.72;1.40;;;;;;;5.03;100.00;101545.88;4914779;28;20050;-74
2024/02/04 04:40:59;;;;;;;10.88;2.45;;;;;;;5.00;100.00;101548.94;4906621;28;20478;-75
2024/02/04 04:43:26;;;;;;;7.88;1.75;;;;;;;4.98;100.00;101551.00;4939696;28;20493;-74
2024/02/04 04:45:52;;;;;;;11.35;2.25;;;;;;;5.03;100.00;101553.81;4927402;28;20466;-74
2024/02/04 04:48:17;;;;;;;10.95;2.35;;;;;;;5.05;100.00;101543.81;4941895;28;20052;-74
2024/02/04 04:50:43;;;;;;;6.30;1.88;;;;;;;5.05;100.00;101543.00;4908219;28;20134;-74
2024/02/04 04:53:09;;;;;;;8.43;1.98;;;;;;;5.08;100.00;101547.84;4921985;29;20035;-75
2024/02/04 04:55:35;;;;;;;9.43;2.10;;;;;;;5.06;100.00;101536.66;4942305;28;20074;-74
2024/02/04 04:58:03;;;;;;;10.23;2.70;;;;;;;5.04;100.00;101525.44;4936277;28;20043;-74
2024/02/04 05:00:29;;;;;;;9.88;2.33;;;;;;;5.03;100.00;101519.31;4910011;29;20051;-74
2024/02/04 05:02:54;;;;;;;10.20;1.80;;;;;;;5.00;100.00;101518.91;4934007;28;20036;-74
2024/02/04 05:05:20;;;;;;;10.93;2.38;;;;;;;4.98;100.00;101513.81;4919235;29;20394;-74
2024/02/04 05:07:46;;;;;;;10.65;1.85;;;;;;;5.01;100.00;101505.41;4920243;28;20044;-74
2024/02/04 05:10:12;;;;;;;9.02;2.13;;;;;;;5.01;100.00;101500.09;4939086;28;20137;-74
2024/02/04 05:12:38;;;;;;;5.88;1.98;;;;;;;5.04;100.00;101504.19;4925946;29;20039;-74
2024/02/04 05:15:07;;;;;;;10.88;2.38;;;;;;;5.01;100.00;101510.72;4899084;28;20043;-74
2024/02/04 05:17:33;;;;;;;10.60;2.30;;;;;;;5.03;100.00;101519.31;4916927;29;20501;-74
2024/02/04 05:19:59;;;;;;;11.07;2.38;;;;;;;5.02;100.00;101517.69;4933150;28;20054;-74
2024/02/04 05:22:25;;;;;;;10.07;2.45;;;;;;;5.00;100.00;101506.44;4927362;29;20070;-74
2024/02/04 05:24:51;;;;;;;13.57;3.17;;;;;;;4.97;100.00;101504.25;4927417;28;20035;-75
2024/02/04 05:27:16;;;;;;;11.70;2.70;;;;;;;4.96;100.00;101496.50;4935813;28;20056;-74
2024/02/04 05:29:42;;;;;;;9.80;2.53;;;;;;;4.94;100.00;101494.03;4937287;28;20043;-74
2024/02/04 05:32:08;;;;;;;14.48;2.55;;;;;;;4.93;100.00;101503.03;4933924;28;20039;-74
2024/02/04 05:34:34;;;;;;;10.00;2.25;;;;;;;4.92;100.00;101501.41;4922894;28;20050;-73
2024/02/04 05:37:00;;;;;;;7.85;2.55;;;;;;;4.95;100.00;101501.00;4932554;28;20035;-74
2024/02/04 05:39:26;;;;;;;10.60;2.47;;;;;;;4.93;100.00;101492.41;4926828;29;20080;-74
2024/02/04 05:41:52;;;;;;;8.48;2.40;;;;;;;4.96;100.00;101497.31;4938305;28;20424;-73
2024/02/04 05:44:17;;;;;;;9.85;2.67;;;;;;;4.97;100.00;101490.97;4926513;29;20107;-73
2024/02/04 05:46:43;;;;;;;10.27;2.13;;;;;;;4.95;100.00;101484.25;4919849;29;20051;-74
2024/02/04 05:49:09;;;;;;;10.05;2.53;;;;;;;4.95;100.00;101481.59;4937699;28;20043;-74
2024/02/04 05:51:41;;;;;;;10.50;3.22;;;;;;;4.95;100.00;101485.06;4921203;29;20410;-74
2024/02/04 05:54:07;;;;;;;11.38;2.55;;;;;;;4.94;100.00;101478.09;4934554;28;20038;-75
2024/02/04 05:56:34;;;;;;;13.27;2.17;;;;;;;4.95;100.00;101470.97;4939368;28;20035;-74
2024/02/04 05:59:00;;;;;;;8.80;3.05;;;;;;;4.94;100.00;101467.50;4922872;28;20511;-75
2024/02/04 06:01:26;;;;;;;6.45;2.25;;;;;;;4.93;100.00;101479.13;4906037;29;20036;-75
2024/02/04 06:03:51;;;;;;;11.57;2.20;;;;;;;4.91;100.00;101478.53;4921826;28;20046;-75
2024/02/04 06:06:19;;;;;;;13.48;2.40;;;;;;;4.89;100.00;101480.59;4920652;29;20035;-74
2024/02/04 06:08:46;;;;;;;9.57;2.22;;;;;;;4.92;100.00;101491.59;4937650;28;20174;-74
2024/02/04 06:11:12;;;;;;;;;;;;;;;4.93;100.00;101489.75;4929180;28;20123;-74
2024/02/04 06:13:40;;;;;;;9.98;2.10;;;;;;;4.89;100.00;101484.06;4943184;28;20056;-75
2024/02/04 06:16:06;;;;;;;8.20;1.90;;;;;;;4.89;100.00;101485.91;4919322;28;20035;-74
2024/02/04 06:18:32;;;;;;;13.02;1.85;;;;;;;4.87;100.00;101482.66;4938194;28;20051;-75
2024/02/04 06:20:57;;;;;;;8.40;2.47;;;;;;;4.82;100.00;101470.03;4929050;28;20097;-74
2024/02/04 06:23:23;;;;;;;6.78;1.83;;;;;;;4.86;100.00;101481.84;4931980;29;20284;-73
2024/02/04 06:25:49;;;;;;;6.65;1.42;;;;;;;4.84;100.00;101475.94;4905653;29;20067;-75
2024/02/04 06:28:15;;;;;;;7.47;1.90;;;;;;;4.84;100.00;101470.63;4938623;28;20473;-75
2024/02/04 06:30:40;;;;;;;15.68;3.67;;;;;;;4.86;100.00;101475.72;4933279;28;20027;-73
2024/02/04 06:33:06;;;;;;;11.20;2.53;;;;;;;4.86;100.00;101473.88;4923183;28;20044;-75
2024/02/04 06:35:32;;;;;;;12.80;1.90;;;;;;;4.86;100.00;101470.41;4944242;28;20031;-74
2024/02/04 06:37:58;;;;;;;10.05;1.98;;;;;;;4.86;100.00;101462.44;4904726;28;20556;-75
2024/02/04 06:40:24;;;;;;;5.22;1.38;;;;;;;4.86;100.00;101462.44;4925860;29;20039;-75
2024/02/04 06:42:50;;;;;;;12.77;2.20;;;;;;;4.86;100.00;101460.59;4932840;28;20048;-75
2024/02/04 06:45:16;;;;;;;9.88;2.13;;;;;;;4.86;100.00;101457.13;4922378;29;20035;-75
2024/02/04 06:47:45;;;;;;;10.40;1.75;;;;;;;4.89;100.00;101459.38;4940116;28;20037;-74
2024/02/04 06:50:13;;;;;;;10.15;2.05;;;;;;;4.91;100.00;101457.31;4947578;28;20035;-75
2024/02/04 06:52:40;;;;;;;13.00;1.75;;;;;;;4.93;100.00;101465.88;4938296;28;20067;-74
2024/02/04 06:55:07;;;;;;;6.95;1.80;;;;;;;4.93;100.00;101458.72;4923893;28;20122;-75
2024/02/04 06:57:32;;;;;;;10.95;2.08;;;;;;;4.94;100.00;101454.22;4935241;28;20126;-74
2024/02/04 06:59:58;;;;;;;10.93;2.05;;;;;;;4.94;100.00;101454.22;4951920;28;20043;-74
2024/02/04 07:02:23;;;;;;;10.77;1.67;;;;;;;4.95;100.00;101452.41;4940181;28;20047;-74
2024/02/04 07:04:49;;;;;;;10.60;1.58;;;;;;;4.98;100.00;101442.16;4905991;29;20054;-74
2024/02/04 07:07:15;;;;;;;10.10;1.83;;;;;;;4.98;100.00;101442.16;4942331;28;20046;-74
2024/02/04 07:09:41;;;;;;;12.93;1.67;;;;;;;5.00;100.00;101445.41;4926542;29;20027;-75
2024/02/04 07:12:07;;;;;;;9.50;1.85;;;;;;;5.01;100.00;101436.41;4917182;28;20731;-74
2024/02/04 07:14:32;;;;;;;8.35;1.60;;;;;;;5.03;100.00;101428.25;4928753;28;20498;-74
2024/02/04 07:16:58;;;;;;;6.97;1.60;;;;;;;5.01;100.00;101425.78;4936590;28;20505;-73
2024/02/04 07:19:24;;;;;;;7.50;1.60;;;;;;;5.01;100.00;101431.09;4930466;29;20058;-74
2024/02/04 07:21:49;;;;;;;10.50;1.67;;;;;;;5.03;100.00;101441.50;4909513;29;20074;-73
2024/02/04 07:24:15;;;;;;;10.27;1.85;;;;;;;5.06;100.00;101447.19;4935198;28;20066;-74
2024/02/04 07:26:41;;;;;;;11.45;1.55;;;;;;;5.08;100.00;101454.94;4943912;28;20501;-73
2024/02/04 07:29:06;;;;;;;13.30;2.67;;;;;;;5.07;100.00;101438.19;4932934;28;20074;-73
2024/02/04 07:31:32;;;;;;;5.55;1.63;;;;;;;5.09;100.00;101438.00;4929582;28;20044;-73
2024/02/04 07:33:58;;;;;;;10.00;2.13;;;;;;;5.11;100.00;101436.75;4917468;28;20103;-73
2024/02/04 07:36:23;;;;;;;10.20;2.20;;;;;;;5.12;100.00;101442.88;4922330;29;20039;-73
2024/02/04 07:38:49;;;;;;;11.77;2.45;;;;;;;5.14;100.00;101440.81;4944975;28;20043;-73
2024/02/04 07:41:18;;;;;;;12.05;2.00;;;;;;;5.15;100.00;101423.88;4906027;28;20043;-73
2024/02/04 07:43:43;;;;;;;14.80;1.92;;;;;;;5.17;100.00;101422.59;4931069;28;20040;-73
2024/02/04 07:46:09;;;;;;;10.15;2.00;;;;;;;5.17;100.00;101425.25;4903120;28;20054;-73
2024/02/04 07:48:35;;;;;;;10.48;1.83;;;;;;;5.19;100.00;101433.00;4937710;28;20040;-72
2024/02/04 07:51:01;;;;;;;9.75;1.88;;;;;;;5.19;100.00;101422.38;4930970;28;20039;-73
2024/02/04 07:53:26;;;;;;;11.48;1.60;;;;;;;5.19;100.00;101415.22;4934492;28;20044;-74
2024/02/04 07:55:52;;;;;;;10.35;2.10;;;;;;;5.24;100.00;101430.53;4924996;29;20179;-73
2024/02/04 07:58:17;;;;;;;9.48;1.65;;;;;;;5.25;100.00;101426.00;4911683;28;20032;-73
2024/02/04 08:00:43;;;;;;;11.27;1.80;;;;;;;5.27;100.00;101429.25;4942919;28;20457;-72
2024/02/04 08:03:09;;;;;;;;;;;;;;;5.30;100.00;101412.91;4919319;28;20031;-72
2024/02/04 08:05:35;;;;;;;7.93;1.65;;;;;;;5.34;100.00;101408.75;4931313;28;19919;-73
2024/02/04 08:08:01;;;;;;;11.38;1.92;;;;;;;5.35;100.00;101405.06;4928387;28;20508;-74
2024/02/04 08:10:27;;;;;;;7.25;1.70;;;;;;;5.37;100.00;101418.97;4905651;29;20050;-73
2024/02/04 08:12:53;;;;;;;11.40;1.95;;;;;;;5.37;100.00;101421.63;4920287;29;20035;-73
2024/02/04 08:15:20;;;;;;;9.88;1.85;;;;;;;5.40;100.00;101414.03;4936456;28;20122;-73
2024/02/04 08:17:45;;;;;;;13.23;2.10;;;;;;;5.42;100.00;101404.00;4939473;28;20045;-73
2024/02/04 08:20:12;;;;;;;10.35;1.88;;;;;;;5.45;100.00;101410.72;4910162;28;20039;-74
2024/02/04 08:22:37;;;;;;;;;;;;;;;5.46;100.00;101428.28;4925848;28;20039;-73
2024/02/04 08:25:05;;;;;;;8.25;2.10;;;;;;;5.50;100.00;101418.03;4940372;28;19924;-75
2024/02/04 08:27:31;;;;;;;10.48;1.50;;;;;;;5.53;100.00;101433.53;4937044;28;20071;-72
2024/02/04 08:29:57;;;;;;;11.02;2.10;;;;;;;5.54;100.00;101445.78;4931914;28;20162;-73
2024/02/04 08:32:23;;;;;;;9.68;1.92;;;;;;;5.54;100.00;101435.97;4939608;28;21019;-72
2024/02/04 08:34:48;;;;;;;11.27;2.03;;;;;;;5.55;100.00;101410.19;4941580;28;20438;-73
2024/02/04 08:37:14;;;;;;;12.40;3.17;;;;;;;5.55;100.00;101426.94;4918509;28;20051;-73
2024/02/04 08:39:39;;;;;;;9.70;1.58;;;;;;;5.59;100.00;101422.84;4942902;28;20110;-73
2024/02/04 08:42:05;;;;;;;11.05;2.17;;;;;;;5.63;100.00;101417.91;4908114;28;20041;-73
2024/02/04 08:44:31;;;;;;;11.95;2.13;;;;;;;5.67;100.00;101421.72;4915893;29;20035;-73
2024/02/04 08:46:57;;;;;;;8.93;1.98;;;;;;;5.68;100.00;101413.53;4936940;28;20110;-72
2024/02/04 08:49:22;;;;;;;6.13;1.77;;;;;;;5.71;100.00;101423.75;4925974;28;20465;-73
2024/02/04 08:51:48;;;;;;;15.05;2.08;;;;;;;5.73;100.00;101421.66;4934867;28;20039;-74
2024/02/04 08:54:14;;;;;;;14.50;2.80;;;;;;;5.75;100.00;101437.38;4935045;28;20498;-73
2024/02/04 08:56:40;;;;;;;11.00;2.25;;;;;;;5.74;100.00;101431.25;4931867;28;20087;-72
2024/02/04 08:59:06;;;;;;;10.68;2.55;;;;;;;5.75;100.00;101432.88;4941322;28;20051;-72
2024/02/04 09:01:32;;;;;;;12.98;2.30;;;;;;;5.82;100.00;101418.72;4911941;29;20039;-73
2024/02/04 09:03:58;;;;;;;12.32;2.25;;;;;;;5.82;100.00;101416.06;4926557;28;20046;-72
2024/02/04 09:06:24;;;;;;;11.60;2.40;;;;;;;5.81;100.00;101398.47;4916872;28;20039;-72
2024/02/04 09:08:50;;;;;;;9.50;1.88;;;;;;;5.85;100.00;101394.34;4938607;28;20048;-72
2024/02/04 09:11:18;;;;;;;10.80;2.78;;;;;;;5.86;100.00;101374.72;4938407;28;20044;-72
2024/02/04 09:13:46;;;;;;;12.25;2.35;;;;;;;5.90;100.00;101391.84;4918644;29;20062;-73
2024/02/04 09:16:11;;;;;;;12.55;2.88;;;;;;;5.91;100.00;101393.50;4923561;28;20039;-73
2024/02/04 09:18:37;;;;;;;9.25;2.20;;;;;;;5.94;100.00;101403.69;4949035;28;20044;-72
2024/02/04 09:21:03;;;;;;;10.77;2.70;;;;;;;5.94;100.00;101401.84;4939187;28;20588;-73
2024/02/04 09:23:29;;;;;;;11.02;2.38;;;;;;;5.93;100.00;101391.44;4923145;28;20114;-72
2024/02/04 09:25:54;;;;;;;13.90;2.72;;;;;;;5.94;100.00;101396.50;4945239;28;20090;-73
2024/02/04 09:28:20;;;;;;;11.65;3.33;;;;;;;5.93;100.00;101402.88;4946495;28;20085;-73
2024/02/04 09:30:46;;;;;;;13.10;3.20;;;;;;;5.97;100.00;101403.25;4946581;28;20035;-72
2024/02/04 09:33:13;;;;;;;13.32;2.40;;;;;;;6.01;100.00;101410.53;4923527;28;20107;-72
2024/02/04 09:35:38;;;;;;;12.05;2.20;;;;;;;6.04;100.00;101398.66;4936002;28;20508;-72
2024/02/04 09:38:04;;;;;;;9.25;2.65;;;;;;;6.08;100.00;101404.34;4937615;28;20047;-72
2024/02/04 09:40:29;;;;;;;15.82;2.58;;;;;;;6.11;100.00;101404.72;4923823;29;20036;-72
2024/02/04 09:42:58;;;;;;;8.88;2.35;;;;;;;6.16;100.00;101420.78;4908926;29;20090;-74
2024/02/04 09:45:23;;;;;;;15.90;2.10;;;;;;;6.18;100.00;101415.28;4936367;28;20139;-73
2024/02/04 09:47:52;;;;;;;12.13;2.45;;;;;;;6.24;100.00;101401.06;4937413;28;20046;-72
2024/02/04 09:50:20;;;;;;;8.60;2.75;;;;;;;6.27;100.00;101398.75;4932111;28;20040;-72
2024/02/04 09:52:50;;;;;;;12.90;2.40;;;;;;;6.32;100.00;101394.63;4931287;28;20035;-71
2024/02/04 09:55:17;;;;;;;10.40;2.53;;;;;;;6.34;100.00;101406.66;4922385;28;20131;-71
2024/02/04 09:57:44;;;;;;;11.05;2.10;;;;;;;6.39;100.00;101406.00;4942864;28;20547;-74
2024/02/04 10:00:10;;;;;;;12.32;3.13;;;;;;;6.39;100.00;101401.47;4938321;28;20044;-74
2024/02/04 10:02:39;;;;;;;10.68;2.65;;;;;;;6.41;100.00;101401.25;4921837;29;20412;-71
2024/02/04 10:05:05;;;;;;;15.55;2.55;;;;;;;6.42;100.00;101410.84;4934214;28;20126;-72
2024/02/04 10:07:30;;;;;;;18.40;2.72;;;;;;;6.37;100.00;101392.94;4937073;28;20077;-71
2024/02/04 10:09:56;;;;;;;11.85;2.30;;;;;;;6.41;100.00;101393.28;4944615;28;20485;-74
2024/02/04 10:12:21;;;;;;;7.72;2.15;;;;;;;6.45;100.00;101391.78;4929905;28;20071;-71
2024/02/04 10:14:49;;;;;;;9.48;2.38;;;;;;;6.45;100.00;101381.16;4931778;28;20029;-72
2024/02/04 10:17:20;;;;;;;13.57;2.28;;;;;;;6.48;100.00;101383.34;4921362;28;20038;-73
2024/02/04 10:19:49;;;;;;;8.75;1.75;;;;;;;6.52;100.00;101374.69;4947989;28;20042;-71
2024/02/04 10:22:16;;;;;;;14.52;3.45;;;;;;;6.54;100.00;101372.59;4936701;28;20047;-73
2024/02/04 10:24:43;;;;;;;11.55;2.20;;;;;;;6.57;100.00;101371.34;4914848;29;20130;-72
2024/02/04 10:27:11;;;;;;;;;;;;;;;6.59;100.00;101366.59;4937816;28;20027;-72
2024/02/04 10:29:37;;;;;;;8.77;2.22;;;;;;;6.58;100.00;101362.34;4938427;28;19919;-71
2024/02/04 10:32:03;;;;;;;14.27;1.85;;;;;;;6.59;100.00;101371.94;4934157;28;20051;-72
2024/02/04 10:34:29;;;;;;;15.65;2.22;;;;;;;6.59;100.00;101365.81;4940699;28;20039;-72
2024/02/04 10:36:57;;;;;;;9.32;2.17;;;;;;;6.60;100.00;101370.06;4931207;28;20044;-72
2024/02/04 10:39:22;;;;;;;14.80;2.33;;;;;;;6.62;100.00;101374.13;4939332;28;20531;-73
2024/02/04 10:41:53;;;;;;;9.38;1.88;;;;;;;6.63;100.00;101372.28;4935354;28;20070;-72
2024/02/04 10:44:23;;;;;;;13.88;2.78;;;;;;;6.64;100.00;101361.41;4939512;28;20524;-72
2024/02/04 10:46:51;;;;;;;10.07;2.10;;;;;;;6.63;100.00;101354.44;4941572;28;20039;-72
2024/02/04 10:49:19;;;;;;;15.27;2.58;;;;;;;6.62;100.00;101366.13;4939384;28;20023;-70
2024/02/04 10:51:46;;;;;;;12.48;1.98;;;;;;;6.64;100.00;101350.78;4924221;28;20039;-73
2024/02/04 10:54:20;;;;;;;14.43;3.15;;;;;;;6.64;100.00;101361.41;4929207;28;20039;-73
2024/02/04 10:56:55;;;;;;;11.85;2.40;;;;;;;6.66;100.00;101353.19;4939065;28;20027;-72
2024/02/04 10:59:21;;;;;;;16.02;3.55;;;;;;;6.69;100.00;101358.88;4952653;28;20034;-72
2024/02/04 11:01:50;;;;;;;11.02;1.70;;;;;;;6.69;100.00;101356.19;4939789;28;20189;-73
2024/02/04 11:04:18;;;;;;;13.15;3.05;;;;;;;6.71;100.00;101362.13;4903626;28;20090;-72
2024/02/04 11:06:44;;;;;;;12.98;2.13;;;;;;;6.73;100.00;101344.06;4915963;29;20189;-73
2024/02/04 11:09:11;;;;;;;10.77;3.13;;;;;;;6.77;100.00;101347.91;4931557;28;20039;-72
2024/02/04 11:11:39;;;;;;;12.55;2.72;;;;;;;6.78;100.00;101352.19;4936691;28;20052;-72
2024/02/04 11:14:12;;;;;;;11.63;2.08;;;;;;;6.81;100.00;101351.72;4935175;28;20044;-72
2024/02/04 11:17:07;;;;;;;12.60;2.47;;;;;;;6.83;100.00;101348.81;4920231;29;20146;-70
2024/02/04 11:19:42;;;;;;;16.70;2.78;;;;;;;6.87;100.00;101338.53;4947909;28;20085;-71